Latest Weather Observations for Laverton

IDW60801

Issued at 7:02 pm WST Tuesday 31 March 2015 (issued every 30 minutes, with the page automatically refreshed every 10 minutes)

About weather observations | Map of weather stations | Latest weather observations for WA | Other Formats
Station Details ID: 012305 Name: LAVERTON AERO Lat: -28.61 Lon: 122.42 Height: 464.3 m
Data from the previous 72 hours. | See also: Recent months at Laverton
Date/Time
WST
Temp
°C
App
Temp
°C
Dew
Point
Rel
Hum
%
Delta-T
°C
Wind Press
QNH
hPa
Press
MSL
hPa
Rain
since 9 am
mm
Dir
 
Spd
km/h
Gust
km/h
Spd
kts
Gust
kts
31/07:00pm 19.5 21.2 19.3 99 0.1 N 9 13 5 7 1019.2 1016.6 15.4
31/06:30pm 19.5 21.6 19.3 99 0.1 NNE 7 9 4 5 1018.8 1016.2 15.4
31/06:00pm 19.6 21.7 19.4 99 0.1 W 7 9 4 5 1018.9 1016.3 15.2
31/05:30pm 19.7 22.0 19.5 99 0.1 N 6 11 3 6 1018.5 1016.0 12.4
31/05:00pm 20.2 22.2 19.9 98 0.2 NW 9 13 5 7 1018.4 1015.9 11.0
31/04:30pm 20.2 22.3 19.4 95 0.5 NNW 7 11 4 6 1017.6 1015.0 10.8
31/04:00pm 20.3 22.5 19.3 94 0.6 NNW 6 7 3 4 1017.3 1014.7 10.8
31/03:30pm 20.1 23.6 19.6 97 0.3 CALM 0 0 0 0 1017.2 1014.6 10.8
31/03:00pm 19.9 21.7 19.6 98 0.2 WNW 9 13 5 7 1017.6 1015.0 10.8
31/02:30pm 19.7 20.7 19.4 98 0.2 NW 13 19 7 10 1018.1 1015.6 10.2
31/02:00pm 19.4 19.1 19.1 98 0.2 WNW 19 30 10 16 1018.4 1015.9 10.2
31/01:30pm 19.9 20.2 19.6 98 0.2 WNW 17 22 9 12 1018.9 1016.3 8.4
31/01:00pm 19.8 20.1 19.5 98 0.2 NW 17 20 9 11 1018.9 1016.3 7.6
31/12:30pm 19.6 19.4 19.3 98 0.2 NW 19 26 10 14 1018.8 1016.2 7.4
31/12:00pm 19.6 18.8 18.4 93 0.8 NW 20 32 11 17 1018.9 1016.3 7.0
31/11:30am 18.9 20.9 18.7 99 0.1 NNW 6 11 3 6 1019.0 1016.4 6.6
31/11:00am 19.2 19.6 18.9 98 0.2 N 15 24 8 13 1019.9 1017.4 4.4
31/10:30am 19.5 19.6 19.2 98 0.2 NNW 17 28 9 15 1020.5 1018.0 2.8
31/10:00am 19.2 19.9 18.9 98 0.2 N 13 17 7 9 1020.5 1018.0 2.6
31/09:30am 18.9 19.2 18.7 99 0.1 N 15 22 8 12 1020.6 1018.1 1.6
31/09:00am 19.1 18.5 18.8 98 0.2 N 20 28 11 15 1020.8 1018.3 10.6
31/08:30am 19.1 18.1 18.8 98 0.2 N 22 32 12 17 1020.6 1018.1 10.0
31/08:00am 19.3 18.9 19.0 98 0.2 N 19 26 10 14 1020.5 1018.0 9.6
31/07:30am 19.1 18.7 18.8 98 0.2 N 19 24 10 13 1020.2 1017.7 9.2
31/07:00am 19.2 19.2 19.0 99 0.1 N 17 22 9 12 1020.1 1017.6 8.4
31/06:30am 18.9 19.2 18.7 99 0.1 NNE 15 20 8 11 1020.2 1017.7 7.8
31/06:00am 19.0 19.7 18.8 99 0.1 NNE 13 17 7 9 1020.3 1017.8 7.0
31/05:30am 19.0 19.7 18.8 99 0.1 NNE 13 17 7 9 1020.3 1017.8 5.8
31/05:00am 19.1 20.2 18.9 99 0.1 NNE 11 13 6 7 1020.0 1017.5 5.2
31/04:30am 19.1 20.2 18.9 99 0.1 NNE 11 13 6 7 1019.7 1017.1 4.8
31/04:00am 19.0 20.5 18.8 99 0.1 NE 9 13 5 7 1019.7 1017.1 4.8
31/03:30am 19.1 20.6 18.9 99 0.1 NNE 9 11 5 6 1019.8 1017.3 4.6
31/03:00am 19.1 21.0 18.9 99 0.1 NNE 7 9 4 5 1020.0 1017.5 4.2
31/02:30am 19.2 21.1 19.0 99 0.1 N 7 11 4 6 1020.5 1018.0 3.4
31/02:00am 19.5 21.6 19.3 99 0.1 NNW 7 13 4 7 1020.9 1018.4 2.0
31/01:30am 19.5 21.2 19.3 99 0.1 WNW 9 13 5 7 1021.2 1018.6 1.4
31/01:00am 19.6 21.3 19.3 98 0.2 W 9 13 5 7 1021.3 1018.7 1.0
31/12:30am 19.7 20.3 19.4 98 0.2 W 15 19 8 10 1021.4 1018.8 0.6
31/12:00am 20.3 21.9 19.1 93 0.8 W 9 13 5 7 1021.8 1019.3 0.4
 
Date/Time
WST
Temp
°C
App
Temp
°C
Dew
Point
Rel
Hum
%
Delta-T
°C
Wind Press
QNH
hPa
Press
MSL
hPa
Rain
since 9 am
mm
Dir
 
Spd
km/h
Gust
km/h
Spd
kts
Gust
kts
30/11:30pm 21.0 20.4 17.6 81 2.1 WSW 17 22 9 12 1021.8 1019.3 0.0
30/11:00pm 23.1 21.2 15.7 63 4.5 W 20 28 11 15 1021.8 1019.3 0.0
30/10:30pm 24.1 21.4 14.5 55 5.8 WSW 22 32 12 17 1021.2 1018.6 0.0
30/10:00pm 25.0 21.8 14.2 51 6.5 WSW 24 32 13 17 1020.7 1018.2 0.0
30/09:30pm 25.8 22.8 13.6 47 7.3 WSW 22 32 12 17 1020.6 1018.1 0.0
30/09:00pm 26.5 23.0 13.3 44 7.9 WSW 24 33 13 18 1020.4 1017.9 0.0
30/08:30pm 27.4 24.7 11.8 38 9.2 W 17 22 9 12 1020.1 1017.6 0.0
30/08:00pm 27.9 25.1 11.5 36 9.6 W 17 26 9 14 1019.7 1017.1 0.0
30/07:30pm 28.6 25.1 10.8 33 10.3 W 20 30 11 16 1019.5 1016.9 0.0
30/07:00pm 29.5 27.5 10.1 30 11.2 W 11 15 6 8 1019.0 1016.4 0.0
30/06:30pm 30.1 28.7 9.6 28 11.8 NW 7 11 4 6 1018.5 1016.0 0.0
30/06:00pm 30.6 27.5 8.9 26 12.3 NE 15 26 8 14 1018.2 1015.7 0.0
30/05:30pm 30.9 28.5 8.6 25 12.6 NE 11 13 6 7 1018.0 1015.5 0.0
30/05:00pm 31.3 28.4 8.3 24 13.0 NE 13 17 7 9 1018.0 1015.5 0.0
30/04:30pm 31.5 29.1 8.5 24 13.0 NE 11 17 6 9 1017.8 1015.3 0.0
30/04:00pm 32.0 29.3 8.9 24 13.2 ENE 13 17 7 9 1017.6 1015.0 0.0
30/03:30pm 33.3 30.2 8.7 22 14.1 NE 15 24 8 13 1017.6 1015.0 0.0
30/03:00pm 32.1 31.4 8.4 23 13.4 NNE 2 9 1 5 1017.9 1015.4 0.0
30/02:30pm 32.0 28.9 8.9 24 13.2 NNE 15 22 8 12 1017.9 1015.4 0.0
30/02:00pm 32.5 30.9 8.7 23 13.6 NE 7 20 4 11 1018.2 1015.7 0.0
30/01:30pm 31.9 29.9 8.8 24 13.2 NE 9 17 5 9 1018.5 1016.0 0.0
30/01:00pm 32.8 30.7 9.6 24 13.4 NE 11 26 6 14 1018.6 1016.1 0.0
30/12:30pm 32.0 28.0 8.9 24 13.2 NE 20 33 11 18 1019.3 1016.7 0.0
30/12:00pm 31.8 27.9 9.3 25 12.9 NE 20 30 11 16 1019.8 1017.3 0.0
30/11:30am 31.9 28.3 10.0 26 12.7 NE 19 30 10 16 1020.4 1017.9 0.0
30/11:00am 30.4 26.8 9.8 28 11.8 NE 19 28 10 15 1021.1 1018.5 0.0
30/10:30am 30.1 26.0 10.1 29 11.6 NE 22 30 12 16 1021.3 1018.7 0.0
30/10:00am 28.5 24.3 9.7 31 10.7 NE 22 32 12 17 1021.5 1018.9 0.0
30/09:30am 27.1 21.8 9.9 34 9.8 NE 28 35 15 19 1021.7 1019.2 0.0
30/09:00am 26.0 19.9 9.8 36 9.1 ENE 32 43 17 23 1021.9 1019.4 0.0
30/08:30am 24.3 18.7 10.2 41 7.9 ENE 30 43 16 23 1022.0 1019.5 0.0
30/08:00am 22.6 16.8 10.7 47 6.7 ENE 32 43 17 23 1021.8 1019.3 0.0
30/07:30am 21.7 16.8 11.4 52 5.8 ENE 28 39 15 21 1021.6 1019.0 0.0
30/07:00am 20.1 16.1 11.8 59 4.7 ENE 24 32 13 17 1021.4 1018.8 0.0
30/06:30am 18.7 16.2 12.2 66 3.7 ENE 17 20 9 11 1021.4 1018.8 0.0
30/06:00am 18.2 16.0 12.0 67 3.5 E 15 19 8 10 1021.2 1018.6 0.0
30/05:30am 18.7 16.1 12.0 65 3.8 ENE 17 22 9 12 1020.8 1018.3 0.0
30/05:00am 18.8 16.2 12.1 65 3.8 ENE 17 20 9 11 1020.4 1017.9 0.0
30/04:30am 19.0 16.0 12.0 64 4.0 ENE 19 22 10 12 1020.1 1017.6 0.0
30/04:00am 19.2 16.2 12.0 63 4.1 ENE 19 24 10 13 1020.0 1017.5 0.0
30/03:30am 19.6 17.0 11.9 61 4.4 ENE 17 22 9 12 1019.7 1017.1 0.0
30/03:00am 20.0 17.0 12.0 60 4.5 ENE 19 24 10 13 1019.6 1017.0 0.0
30/02:30am 20.3 17.1 12.0 59 4.7 E 20 24 11 13 1019.6 1017.0 0.0
30/02:00am 20.5 17.4 11.7 57 5.0 ENE 19 22 10 12 1020.1 1017.6 0.0
30/01:30am 21.1 18.0 11.7 55 5.4 E 19 24 10 13 1020.1 1017.6 0.0
30/01:00am 21.3 18.2 11.6 54 5.5 E 19 24 10 13 1020.3 1017.8 0.0
30/12:30am 21.4 18.2 11.4 53 5.7 E 19 22 10 12 1020.4 1017.9 0.0
30/12:00am 21.5 18.2 10.9 51 5.9 E 19 22 10 12 1020.6 1018.1 0.0
 
Date/Time
WST
Temp
°C
App
Temp
°C
Dew
Point
Rel
Hum
%
Delta-T
°C
Wind Press
QNH
hPa
Press
MSL
hPa
Rain
since 9 am
mm
Dir
 
Spd
km/h
Gust
km/h
Spd
kts
Gust
kts
29/11:30pm 22.0 18.8 11.1 50 6.2 E 19 20 10 11 1020.8 1018.3 0.0
29/11:00pm 22.2 20.0 10.7 48 6.4 ENE 13 15 7 8 1020.7 1018.2 0.0
29/10:30pm 22.8 21.0 10.9 47 6.7 ENE 11 13 6 7 1021.1 1018.5 0.0
29/10:00pm 23.4 20.8 10.8 45 7.1 ENE 15 19 8 10 1021.2 1018.6 0.0
29/09:30pm 23.8 21.5 10.5 43 7.5 ENE 13 19 7 10 1021.6 1019.0 0.0
29/09:00pm 24.4 21.7 10.3 41 7.9 E 15 17 8 9 1021.6 1019.0 0.0
29/08:30pm 24.9 22.5 10.0 39 8.4 ENE 13 15 7 8 1021.5 1018.9 0.0
29/08:00pm 25.8 23.4 10.0 37 8.9 E 13 17 7 9 1021.4 1018.8 0.0
29/07:30pm 26.3 24.3 10.0 36 9.2 E 11 13 6 7 1021.4 1018.8 0.0
29/07:00pm 27.1 24.7 9.9 34 9.7 E 13 17 7 9 1021.3 1018.7 0.0
29/06:30pm 27.6 25.6 8.5 30 10.6 SE 9 11 5 6 1020.8 1018.3 0.0
29/06:00pm 28.1 26.0 8.4 29 10.9 SE 9 13 5 7 1020.4 1017.9 0.0
29/05:30pm 28.7 26.2 8.4 28 11.3 SSE 11 15 6 8 1020.1 1017.6 0.0
29/05:00pm 28.9 27.8 8.6 28 11.4 W 4 9 2 5 1019.9 1017.4 0.0
29/04:30pm 29.0 27.5 9.2 29 11.2 SSE 7 11 4 6 1020.0 1017.5 0.0
29/04:00pm 29.1 26.7 8.7 28 11.4 S 11 20 6 11 1019.6 1017.0 0.0
29/03:30pm 29.7 27.5 9.3 28 11.6 SW 11 17 6 9 1019.4 1016.8 0.0
29/03:00pm 30.0 29.4 9.0 27 11.9 SE 2 9 1 5 1019.5 1016.9 0.0
29/02:30pm 29.2 27.7 9.3 29 11.3 SW 7 15 4 8 1019.6 1017.0 0.0
29/02:00pm 28.8 26.2 9.5 30 11.0 SSW 13 22 7 12 1019.8 1017.3 0.0
29/01:30pm 29.0 27.6 9.7 30 11.0 SSE 7 15 4 8 1020.0 1017.5 0.0
29/01:00pm 28.8 26.5 10.5 32 10.6 SW 13 22 7 12 1020.3 1017.8 0.0
29/12:30pm 28.8 28.0 10.9 33 10.4 WNW 6 9 3 5 1020.7 1018.2 0.0
29/12:00pm 27.7 25.5 10.9 35 9.7 ESE 13 20 7 11 1021.2 1018.6 0.0
29/11:30am 27.6 26.4 12.8 40 8.8 NE 11 19 6 10 1021.9 1019.4 0.0
29/11:00am 27.1 26.0 13.1 42 8.4 ENE 11 19 6 10 1022.3 1019.8 0.0
29/10:30am 26.9 24.3 13.3 43 8.2 E 19 26 10 14 1022.7 1020.2 0.0
29/10:00am 25.9 22.7 13.1 45 7.6 E 22 28 12 15 1023.0 1020.5 0.0
29/09:30am 25.2 22.6 13.1 47 7.2 ENE 19 26 10 14 1023.1 1020.6 0.0
29/09:00am 24.0 21.2 13.2 50 6.4 ENE 20 26 11 14 1023.4 1020.8 0.0
29/08:30am 22.6 20.5 14.7 61 4.8 ENE 19 24 10 13 1023.2 1020.7 0.0
29/08:00am 21.0 19.1 15.3 70 3.4 E 19 24 10 13 1022.9 1020.4 0.0
29/07:30am 19.5 17.5 15.6 78 2.4 E 20 26 11 14 1022.5 1020.0 0.0
29/07:00am 18.3 16.3 15.4 83 1.7 E 20 24 11 13 1022.2 1019.7 0.0
29/06:30am 17.5 16.0 15.3 87 1.3 ESE 17 20 9 11 1022.0 1019.5 0.0
29/06:00am 17.0 16.3 15.5 91 0.9 ESE 13 17 7 9 1021.8 1019.3 0.0
29/05:30am 17.3 16.3 15.5 89 1.1 ESE 15 20 8 11 1021.6 1019.0 0.0
29/05:00am 17.4 15.9 15.2 87 1.3 ESE 17 22 9 12 1021.2 1018.6 0.0
29/04:30am 17.6 16.4 15.0 85 1.5 E 15 19 8 10 1020.9 1018.4 0.0
29/04:00am 17.7 16.8 14.8 83 1.7 E 13 19 7 10 1020.6 1018.1 0.0
29/03:30am 17.9 17.0 14.8 82 1.8 E 13 17 7 9 1020.4 1017.9 0.0
29/03:00am 18.2 16.9 14.7 80 2.1 ESE 15 17 8 9 1020.3 1017.8 0.0
29/02:30am 18.6 17.6 14.5 77 2.4 ESE 13 17 7 9 1020.4 1017.9 0.0
29/02:00am 19.0 17.5 14.3 74 2.8 ESE 15 17 8 9 1020.4 1017.9 0.0
29/01:30am 19.4 18.2 14.0 71 3.2 ESE 13 19 7 10 1020.6 1018.1 0.0
29/01:00am 19.8 17.7 13.7 68 3.6 ESE 17 22 9 12 1020.5 1018.0 0.0
29/12:30am 20.2 17.4 13.2 64 4.1 ESE 20 28 11 15 1020.8 1018.3 0.0
29/12:00am 20.6 17.8 12.6 60 4.6 ESE 19 24 10 13 1020.8 1018.3 0.0
 
Date/Time
WST
Temp
°C
App
Temp
°C
Dew
Point
Rel
Hum
%
Delta-T
°C
Wind Press
QNH
hPa
Press
MSL
hPa
Rain
since 9 am
mm
Dir
 
Spd
km/h
Gust
km/h
Spd
kts
Gust
kts
28/11:30pm 20.8 17.8 12.0 57 5.0 ESE 19 26 10 14 1020.8 1018.3 0.0
28/11:00pm 21.2 18.1 11.5 54 5.5 SE 19 24 10 13 1020.9 1018.4 0.0
28/10:30pm 21.6 18.2 11.3 52 5.8 SE 20 26 11 14 1021.1 1018.5 0.0
28/10:00pm 21.8 18.5 10.9 50 6.1 SE 19 24 10 13 1021.3 1018.7 0.0
28/09:30pm 22.5 19.1 10.6 47 6.7 SE 19 22 10 12 1021.2 1018.6 0.0
28/09:00pm 23.0 19.9 10.4 45 7.1 SE 17 20 9 11 1020.8 1018.3 0.0
28/08:30pm 23.4 19.7 10.1 43 7.4 SSE 20 30 11 16 1020.3 1017.8 0.0
28/08:00pm 24.0 20.6 9.2 39 8.2 SSE 17 20 9 11 1019.9 1017.4 0.0
28/07:30pm 24.7 20.8 8.6 36 8.8 S 19 26 10 14 1019.5 1016.9 0.0

Other Formats:

Comma delimited format used in spreadsheet applications
http://www.bom.gov.au/fwo/IDW60801/IDW60801.94449.axf

JavaScript Object Notation format (JSON) in row-major order
http://www.bom.gov.au/fwo/IDW60801/IDW60801.94449.json